createdAt,value
2022-12-01T00:01:04.058Z,-0.6
2022-12-01T00:06:10.635Z,-0.5
2022-12-01T00:11:17.226Z,-0.5
2022-12-01T00:16:23.790Z,-0.6
2022-12-01T00:21:30.363Z,-0.6
2022-12-01T00:26:36.946Z,-0.5
2022-12-01T00:31:43.614Z,-0.6
2022-12-01T00:36:50.167Z,-0.5
2022-12-01T00:41:56.668Z,-0.6
2022-12-01T00:47:03.267Z,-0.6
2022-12-01T00:52:09.810Z,-0.6
2022-12-01T00:57:16.387Z,-0.6
2022-12-01T01:02:22.245Z,-0.5
2022-12-01T01:07:28.802Z,-0.6
2022-12-01T01:12:35.373Z,-0.5
2022-12-01T01:17:41.951Z,-0.5
2022-12-01T01:27:55.099Z,-0.5
2022-12-01T01:33:01.681Z,-0.5
2022-12-01T01:38:08.261Z,-0.6
2022-12-01T01:43:14.839Z,-0.6
2022-12-01T01:48:21.472Z,-0.6
2022-12-01T01:53:28.001Z,-0.6
2022-12-01T01:58:34.550Z,-0.6
2022-12-01T02:03:41.129Z,-0.6
2022-12-01T02:08:46.984Z,-0.6
2022-12-01T02:13:53.552Z,-0.6
2022-12-01T02:19:00.161Z,-0.6
2022-12-01T02:24:06.701Z,-0.6
2022-12-01T02:29:13.279Z,-0.7
2022-12-01T02:34:19.840Z,-0.6
2022-12-01T02:39:26.415Z,-0.6
2022-12-01T02:44:33.002Z,-0.7
2022-12-01T02:49:39.563Z,-0.7
2022-12-01T02:54:46.144Z,-0.6
2022-12-01T02:59:52.728Z,-0.7
2022-12-01T03:04:59.297Z,-0.7
2022-12-01T03:10:05.884Z,-0.7
2022-12-01T03:15:11.712Z,-0.7
2022-12-01T03:20:18.302Z,-0.7
2022-12-01T03:25:24.869Z,-0.7
2022-12-01T03:30:31.447Z,-0.7
2022-12-01T03:35:38.021Z,-0.7
2022-12-01T03:40:44.585Z,-0.7
2022-12-01T03:45:50.434Z,-0.7
2022-12-01T03:50:57.019Z,-0.7
2022-12-01T03:56:03.575Z,-0.7
2022-12-01T04:01:10.167Z,-0.7
2022-12-01T04:06:16.743Z,-0.7
2022-12-01T04:11:23.306Z,-0.7
2022-12-01T04:16:29.885Z,-0.7
2022-12-01T04:21:36.455Z,-0.7
2022-12-01T04:26:43.048Z,-0.8
2022-12-01T04:31:49.605Z,-0.8
2022-12-01T04:36:56.190Z,-0.9
2022-12-01T04:42:02.773Z,-0.8
2022-12-01T04:47:09.337Z,-0.8
2022-12-01T04:52:15.912Z,-0.8
2022-12-01T04:57:21.805Z,-0.8
2022-12-01T05:02:28.348Z,-0.8
2022-12-01T05:07:34.899Z,-0.8
2022-12-01T05:12:41.472Z,-0.8
2022-12-01T05:17:48.062Z,-0.8
2022-12-01T05:22:54.625Z,-0.8
2022-12-01T05:28:01.204Z,-0.8
2022-12-01T05:33:07.813Z,-0.8
2022-12-01T05:38:14.379Z,-0.9
2022-12-01T05:43:21.010Z,-0.8
2022-12-01T05:48:27.569Z,-0.9
2022-12-01T05:53:34.118Z,-0.9
2022-12-01T05:58:40.692Z,-0.8
2022-12-01T06:03:46.528Z,-0.8
2022-12-01T06:08:53.101Z,-0.9
2022-12-01T06:13:59.807Z,-0.8
2022-12-01T06:19:06.267Z,-0.9
2022-12-01T06:24:12.845Z,-0.9
2022-12-01T06:29:19.469Z,-0.9
2022-12-01T06:34:25.986Z,-0.9
2022-12-01T06:39:32.624Z,-0.9
2022-12-01T06:44:39.141Z,-0.9
2022-12-01T06:49:45.773Z,-0.9
2022-12-01T06:54:52.295Z,-0.9
2022-12-01T06:59:58.920Z,-0.9
2022-12-01T07:05:05.483Z,-0.8
2022-12-01T07:10:12.140Z,-0.9
2022-12-01T07:15:17.967Z,-0.9
2022-12-01T07:20:24.512Z,-0.9
2022-12-01T07:25:31.003Z,-0.9
2022-12-01T07:30:37.569Z,-0.9
2022-12-01T07:35:44.168Z,-0.9
2022-12-01T07:40:50.837Z,-0.9
2022-12-01T07:45:57.318Z,-0.9
2022-12-01T07:51:03.908Z,-0.9
2022-12-01T07:56:10.508Z,-0.8
2022-12-01T08:01:17.045Z,-0.8
2022-12-01T08:06:23.721Z,-0.8
2022-12-01T08:11:30.290Z,-0.9
2022-12-01T08:16:36.868Z,-0.8
2022-12-01T08:21:42.617Z,-0.9
2022-12-01T08:26:49.238Z,-0.9
2022-12-01T08:31:55.766Z,-0.9
2022-12-01T08:37:02.401Z,-0.9
2022-12-01T08:42:08.903Z,-0.7
2022-12-01T08:47:15.572Z,-0.8
2022-12-01T08:52:22.054Z,-0.6
2022-12-01T08:57:28.621Z,-0.7
2022-12-01T09:02:35.257Z,-0.7
2022-12-01T09:07:41.772Z,-0.7
2022-12-01T09:12:48.357Z,-0.7
2022-12-01T09:17:54.927Z,-0.7
2022-12-01T09:23:01.481Z,-0.6
2022-12-01T09:28:07.334Z,-0.6
2022-12-01T09:33:13.917Z,-0.5
2022-12-01T09:38:20.492Z,-0.4
2022-12-01T09:43:27.055Z,-0.3
2022-12-01T09:48:33.643Z,-0.4
2022-12-01T09:53:40.202Z,-0.4
2022-12-01T09:58:46.790Z,-0.4
2022-12-01T10:03:53.359Z,-0.5
2022-12-01T10:08:59.981Z,-0.6
2022-12-01T10:14:06.488Z,-0.5
2022-12-01T10:19:13.075Z,-0.5
2022-12-01T10:24:19.744Z,-0.4
2022-12-01T10:29:26.222Z,-0.3
2022-12-01T10:34:32.068Z,-0.4
2022-12-01T10:39:38.648Z,-0.4
2022-12-01T10:44:45.378Z,-0.4
2022-12-01T10:49:51.792Z,-0.4
2022-12-01T10:54:58.549Z,-0.4
2022-12-01T11:00:04.937Z,-0.4
2022-12-01T11:05:11.705Z,-0.3
2022-12-01T11:10:18.192Z,-0.2
2022-12-01T11:15:24.787Z,-0.3
2022-12-01T11:20:31.429Z,-0.2
2022-12-01T11:25:37.971Z,-0.3
2022-12-01T11:30:44.492Z,-0.3
2022-12-01T11:35:51.141Z,-0.2
2022-12-01T11:40:56.999Z,-0.2
2022-12-01T11:46:03.368Z,-0.2
2022-12-01T11:51:10.084Z,-0.2
2022-12-01T11:56:16.769Z,-0.3
2022-12-01T12:01:23.233Z,-0.3
2022-12-01T12:06:29.864Z,-0.2
2022-12-01T12:11:36.456Z,-0.3
2022-12-01T12:16:42.996Z,-0.3
2022-12-01T12:21:49.582Z,-0.2
2022-12-01T12:26:56.179Z,-0.2
2022-12-01T12:32:02.676Z,-0.2
2022-12-01T12:37:09.241Z,-0.2
2022-12-01T12:42:15.932Z,-0.2
2022-12-01T12:47:21.706Z,-0.3
2022-12-01T12:52:28.266Z,-0.3
2022-12-01T12:57:34.850Z,-0.3
2022-12-01T13:02:41.245Z,-0.3
2022-12-01T13:07:47.836Z,-0.4
2022-12-01T13:12:54.481Z,-0.4
2022-12-01T13:18:01.047Z,-0.3
2022-12-01T13:23:07.650Z,-0.3
2022-12-01T13:28:14.333Z,-0.3
2022-12-01T13:33:20.877Z,-0.4
2022-12-01T13:38:27.373Z,-0.4
2022-12-01T13:43:34.083Z,-0.3
2022-12-01T13:48:40.626Z,-0.3
2022-12-01T13:53:47.295Z,-0.3
2022-12-01T13:58:53.155Z,-0.3
2022-12-01T14:03:59.677Z,-0.3
2022-12-01T14:09:06.089Z,-0.3
2022-12-01T14:14:12.660Z,-0.4
2022-12-01T14:19:19.213Z,-0.4
2022-12-01T14:24:25.783Z,-0.5
2022-12-01T14:29:32.365Z,-0.5
2022-12-01T14:34:38.963Z,-0.5
2022-12-01T14:39:45.508Z,-0.5
2022-12-01T14:44:52.127Z,-0.5
2022-12-01T14:49:58.669Z,-0.5
2022-12-01T14:55:05.226Z,-0.5
2022-12-01T15:00:11.812Z,-0.5
2022-12-01T15:05:17.646Z,-0.5
2022-12-01T15:10:24.218Z,-0.6
2022-12-01T15:15:30.818Z,-0.6
2022-12-01T15:20:37.389Z,-0.7
2022-12-01T15:25:43.956Z,-0.7
2022-12-01T15:30:50.542Z,-0.8
2022-12-01T15:35:57.108Z,-0.8
2022-12-01T15:41:03.672Z,-0.8
2022-12-01T15:46:10.247Z,-0.8
2022-12-01T15:51:16.841Z,-0.8
2022-12-01T15:56:23.436Z,-0.8
2022-12-01T16:06:36.557Z,-0.9
2022-12-01T16:11:42.414Z,-0.9
2022-12-01T16:16:48.974Z,-0.9
2022-12-01T16:21:55.547Z,-0.9
2022-12-01T16:27:02.132Z,-0.9
2022-12-01T16:32:08.710Z,-0.9
2022-12-01T16:37:15.271Z,-0.9
2022-12-01T16:42:21.864Z,-0.9
2022-12-01T16:47:28.464Z,-0.9
2022-12-01T16:52:35.000Z,-0.9
2022-12-01T16:57:41.618Z,-0.9
2022-12-01T17:02:48.166Z,-0.9
2022-12-01T17:07:54.724Z,-0.9
2022-12-01T17:13:01.292Z,-1
2022-12-01T17:18:07.144Z,-1
2022-12-01T17:23:13.766Z,-1
2022-12-01T17:28:20.315Z,-1
2022-12-01T17:33:26.884Z,-1
2022-12-01T17:38:33.452Z,-1
2022-12-01T17:43:40.033Z,-1
2022-12-01T17:48:46.592Z,-1
2022-12-01T17:53:53.172Z,-1
2022-12-01T17:58:59.757Z,-1
2022-12-01T18:04:06.323Z,-1
2022-12-01T18:09:12.891Z,-1
2022-12-01T18:14:19.522Z,-1
2022-12-01T18:19:26.061Z,-1
2022-12-01T18:24:31.940Z,-1
2022-12-01T18:29:38.511Z,-1
2022-12-01T18:34:45.044Z,-1
2022-12-01T18:39:51.616Z,-1
2022-12-01T18:44:58.207Z,-1
2022-12-01T18:50:04.765Z,-1
2022-12-01T18:55:11.351Z,-1
2022-12-01T19:00:17.960Z,-1
2022-12-01T19:05:24.504Z,-1
2022-12-01T19:10:31.070Z,-1
2022-12-01T19:15:37.637Z,-1
2022-12-01T19:20:44.231Z,-1
2022-12-01T19:25:50.808Z,-1
2022-12-01T19:30:56.752Z,-1
2022-12-01T19:36:03.219Z,-1
2022-12-01T19:41:09.781Z,-1
2022-12-01T19:46:16.388Z,-1
2022-12-01T19:51:22.980Z,-1
2022-12-01T19:56:29.575Z,-1
2022-12-01T20:01:36.099Z,-1
2022-12-01T20:06:42.721Z,-1
2022-12-01T20:11:49.308Z,-1
2022-12-01T20:16:55.821Z,-1
2022-12-01T20:22:02.427Z,-1
2022-12-01T20:27:08.970Z,-1
2022-12-01T20:32:15.532Z,-1
2022-12-01T20:37:22.111Z,-1
2022-12-01T20:42:27.969Z,-1
2022-12-01T20:47:34.598Z,-1
2022-12-01T20:52:40.392Z,-1
2022-12-01T20:57:46.978Z,-1
2022-12-01T21:02:53.543Z,-1
2022-12-01T21:08:00.110Z,-1
2022-12-01T21:13:06.806Z,-1
2022-12-01T21:18:13.369Z,-0.9
2022-12-01T21:23:19.980Z,-1
2022-12-01T21:28:26.551Z,-1
2022-12-01T21:33:33.135Z,-0.9
2022-12-01T21:38:39.662Z,-0.9
2022-12-01T21:43:46.166Z,-0.9
2022-12-01T21:48:52.759Z,-0.9
2022-12-01T21:53:59.436Z,-0.9
2022-12-01T21:59:05.276Z,-0.9
2022-12-01T22:04:11.694Z,-0.9
2022-12-01T22:09:18.335Z,-0.9
2022-12-01T22:14:24.845Z,-0.9
2022-12-01T22:19:31.415Z,-0.9
2022-12-01T22:24:38.001Z,-0.9
2022-12-01T22:29:44.653Z,-0.9
2022-12-01T22:34:51.238Z,-0.9
2022-12-01T22:39:57.763Z,-0.9
2022-12-01T22:45:04.359Z,-0.8
2022-12-01T22:50:10.877Z,-0.8
2022-12-01T22:55:17.433Z,-0.8
2022-12-01T23:00:24.036Z,-0.8
2022-12-01T23:05:29.887Z,-0.8
2022-12-01T23:10:36.466Z,-0.8
2022-12-01T23:15:43.034Z,-0.8
2022-12-01T23:20:49.610Z,-0.8
2022-12-01T23:25:56.243Z,-0.8
2022-12-01T23:31:02.812Z,-0.8
2022-12-01T23:36:09.322Z,-0.8
2022-12-01T23:41:15.900Z,-0.8
2022-12-01T23:46:22.501Z,-0.8
2022-12-01T23:51:29.088Z,-0.8
2022-12-01T23:56:35.709Z,-0.8
